createdAt,value
2023-05-24T00:01:57.811Z,9.30
2023-05-24T00:04:24.471Z,10.80
2023-05-24T00:06:51.832Z,8.70
2023-05-24T00:09:18.342Z,8.60
2023-05-24T00:11:44.853Z,10.00
2023-05-24T00:14:11.473Z,8.60
2023-05-24T00:16:38.122Z,9.20
2023-05-24T00:19:04.688Z,7.90
2023-05-24T00:21:31.261Z,8.10
2023-05-24T00:23:57.986Z,10.20
2023-05-24T00:26:24.488Z,10.00
2023-05-24T00:28:50.940Z,8.80
2023-05-24T00:31:17.491Z,9.20
2023-05-24T00:33:44.071Z,7.70
2023-05-24T00:36:11.139Z,8.50
2023-05-24T00:38:37.627Z,7.90
2023-05-24T00:41:04.174Z,8.30
2023-05-24T00:43:30.665Z,7.80
2023-05-24T00:46:21.458Z,8.70
2023-05-24T00:48:49.695Z,7.70
2023-05-24T00:51:16.574Z,7.00
2023-05-24T00:53:46.327Z,8.00
2023-05-24T00:56:17.205Z,8.60
2023-05-24T00:58:44.348Z,8.30
2023-05-24T01:01:11.527Z,9.60
2023-05-24T01:03:38.477Z,7.90
2023-05-24T01:06:07.353Z,8.20
2023-05-24T01:08:40.050Z,9.90
2023-05-24T01:11:13.028Z,9.10
2023-05-24T01:14:00.992Z,8.60
2023-05-24T01:16:41.669Z,9.10
2023-05-24T01:19:43.877Z,11.50
2023-05-24T01:22:13.082Z,7.60
2023-05-24T01:25:02.481Z,10.10
2023-05-24T01:27:32.141Z,10.10
2023-05-24T01:29:59.930Z,8.60
2023-05-24T01:32:27.167Z,8.00
2023-05-24T01:34:53.753Z,9.30
2023-05-24T01:37:20.270Z,8.20
2023-05-24T01:39:47.509Z,8.90
2023-05-24T01:42:27.186Z,9.30
2023-05-24T01:44:57.818Z,9.60
2023-05-24T01:47:51.634Z,7.90
2023-05-24T01:50:38.507Z,9.40
2023-05-24T01:53:09.122Z,8.20
2023-05-24T01:55:37.501Z,10.10
2023-05-24T01:58:06.312Z,9.50
2023-05-24T02:00:34.489Z,8.60
2023-05-24T02:03:01.550Z,9.60
2023-05-24T02:05:28.265Z,9.80
2023-05-24T02:07:54.859Z,9.70
2023-05-24T02:10:21.374Z,10.30
2023-05-24T02:12:48.025Z,13.30
2023-05-24T02:15:14.605Z,10.30
2023-05-24T02:17:42.266Z,10.10
2023-05-24T02:20:09.492Z,11.50
2023-05-24T02:22:36.010Z,9.60
2023-05-24T02:25:02.546Z,10.50
2023-05-24T02:27:29.100Z,9.90
2023-05-24T02:29:55.558Z,11.90
2023-05-24T02:32:22.043Z,10.10
2023-05-24T02:34:48.622Z,9.50
2023-05-24T02:37:15.229Z,10.70
2023-05-24T02:39:42.146Z,11.30
2023-05-24T02:42:08.924Z,9.40
2023-05-24T02:44:35.499Z,8.90
2023-05-24T02:47:02.040Z,10.10
2023-05-24T02:49:28.586Z,10.30
2023-05-24T02:51:55.072Z,8.90
2023-05-24T02:54:21.556Z,10.00
2023-05-24T02:56:48.066Z,14.70
2023-05-24T02:59:14.598Z,11.30
2023-05-24T03:01:41.175Z,10.40
2023-05-24T03:04:07.837Z,10.90
2023-05-24T03:06:34.475Z,11.30
2023-05-24T03:09:00.998Z,11.50
2023-05-24T03:11:27.508Z,9.20
2023-05-24T03:13:53.999Z,10.80
2023-05-24T03:16:20.571Z,10.90
2023-05-24T03:18:47.110Z,9.90
2023-05-24T03:21:13.705Z,10.40
2023-05-24T03:23:40.276Z,10.80
2023-05-24T03:26:06.784Z,9.60
2023-05-24T03:28:33.401Z,10.30
2023-05-24T03:30:59.984Z,9.90
2023-05-24T03:33:26.515Z,12.90
2023-05-24T03:35:53.157Z,10.40
2023-05-24T03:38:19.643Z,10.90
2023-05-24T03:40:46.145Z,9.70
2023-05-24T03:43:12.647Z,10.50
2023-05-24T03:45:40.180Z,11.80
2023-05-24T03:48:07.031Z,10.10
2023-05-24T03:50:33.598Z,11.10
2023-05-24T03:53:00.187Z,10.60
2023-05-24T03:55:26.782Z,11.00
2023-05-24T03:57:53.324Z,12.80
2023-05-24T04:00:19.921Z,12.00
2023-05-24T04:02:46.529Z,11.20
2023-05-24T04:05:13.905Z,10.20
2023-05-24T04:07:40.919Z,12.20
2023-05-24T04:10:08.212Z,13.60
2023-05-24T04:12:35.256Z,11.80
2023-05-24T04:15:02.151Z,11.30
2023-05-24T04:17:28.860Z,10.60
2023-05-24T04:19:55.785Z,13.40
2023-05-24T04:22:23.776Z,11.60
2023-05-24T04:24:52.454Z,11.70
2023-05-24T04:27:18.953Z,13.40
2023-05-24T04:29:45.608Z,13.40
2023-05-24T04:32:12.187Z,11.80
2023-05-24T04:34:38.659Z,13.90
2023-05-24T04:37:05.238Z,12.50
2023-05-24T04:39:31.759Z,12.90
2023-05-24T04:41:58.294Z,13.20
2023-05-24T04:44:24.756Z,11.30
2023-05-24T04:46:51.306Z,13.70
2023-05-24T04:49:17.909Z,14.80
2023-05-24T04:51:44.456Z,16.60
2023-05-24T04:54:10.979Z,14.50
2023-05-24T04:56:38.509Z,12.50
2023-05-24T04:59:06.195Z,13.70
2023-05-24T05:01:32.856Z,12.70
2023-05-24T05:04:00.013Z,13.80
2023-05-24T05:06:26.670Z,12.30
2023-05-24T05:08:53.195Z,15.40
2023-05-24T05:11:19.768Z,14.40
2023-05-24T05:13:46.265Z,15.20
2023-05-24T05:16:13.007Z,13.30
2023-05-24T05:18:39.507Z,16.90
2023-05-24T05:21:06.034Z,13.80
2023-05-24T05:23:32.615Z,15.50
2023-05-24T05:25:59.078Z,14.70
2023-05-24T05:28:25.571Z,14.40
2023-05-24T05:30:52.189Z,16.80
2023-05-24T05:33:18.765Z,16.50
2023-05-24T05:35:45.350Z,14.00
2023-05-24T05:38:11.814Z,13.50
2023-05-24T05:40:38.364Z,15.30
2023-05-24T05:43:04.985Z,15.60
2023-05-24T05:45:31.612Z,14.90
2023-05-24T05:47:58.109Z,15.10
2023-05-24T05:50:24.746Z,15.30
2023-05-24T05:52:51.248Z,15.30
2023-05-24T05:55:17.759Z,14.80
2023-05-24T05:57:44.288Z,14.50
2023-05-24T06:00:11.261Z,14.40
2023-05-24T06:02:37.801Z,12.40
2023-05-24T06:05:04.611Z,13.40
2023-05-24T06:07:31.212Z,14.10
2023-05-24T06:09:57.775Z,14.20
2023-05-24T06:12:24.282Z,11.10
2023-05-24T06:14:50.787Z,13.10
2023-05-24T06:17:17.277Z,10.40
2023-05-24T06:19:43.782Z,12.50
2023-05-24T06:22:10.346Z,11.50
2023-05-24T06:24:36.813Z,14.10
2023-05-24T06:27:05.307Z,11.20
2023-05-24T06:29:32.228Z,13.10
2023-05-24T06:31:58.915Z,12.30
2023-05-24T06:34:25.587Z,13.50
2023-05-24T06:36:52.204Z,12.90
2023-05-24T06:39:19.011Z,12.00
2023-05-24T06:41:45.644Z,14.40
2023-05-24T06:44:12.167Z,12.00
2023-05-24T06:46:39.430Z,12.00
2023-05-24T06:49:06.049Z,10.80
2023-05-24T06:51:32.574Z,14.70
2023-05-24T06:53:59.136Z,13.60
2023-05-24T06:56:25.821Z,12.80
2023-05-24T06:58:52.588Z,13.30
2023-05-24T07:01:19.248Z,14.90
2023-05-24T07:03:45.797Z,11.90
2023-05-24T07:06:12.328Z,11.90
2023-05-24T07:08:38.870Z,10.30
2023-05-24T07:11:05.565Z,13.00
2023-05-24T07:13:32.107Z,12.70
2023-05-24T07:15:58.608Z,14.20
2023-05-24T07:18:25.256Z,11.40
2023-05-24T07:20:51.938Z,10.60
2023-05-24T07:23:18.526Z,12.80
2023-05-24T07:25:45.044Z,13.10
2023-05-24T07:28:11.594Z,12.00
2023-05-24T07:30:38.113Z,12.70
2023-05-24T07:33:04.683Z,12.80
2023-05-24T07:35:31.304Z,11.80
2023-05-24T07:37:57.879Z,11.60
2023-05-24T07:40:25.720Z,10.90
2023-05-24T07:42:52.413Z,11.50
2023-05-24T07:45:18.925Z,13.80
2023-05-24T07:47:45.486Z,11.80
2023-05-24T07:50:12.137Z,12.40
2023-05-24T07:52:38.668Z,13.90
2023-05-24T07:55:06.151Z,12.20
2023-05-24T07:57:32.674Z,13.00
2023-05-24T07:59:59.179Z,11.90
2023-05-24T08:02:25.773Z,14.00
2023-05-24T08:04:52.290Z,13.00
2023-05-24T08:07:19.032Z,14.50
2023-05-24T08:09:45.605Z,12.10
2023-05-24T08:12:13.018Z,13.30
2023-05-24T08:14:40.849Z,13.00
2023-05-24T08:17:07.408Z,13.00
2023-05-24T08:19:33.895Z,12.40
2023-05-24T08:22:00.556Z,11.80
2023-05-24T08:24:27.030Z,11.80
2023-05-24T08:26:53.584Z,14.00
2023-05-24T08:29:20.149Z,13.90
2023-05-24T08:31:46.694Z,13.60
2023-05-24T08:34:13.951Z,12.80
2023-05-24T08:36:40.677Z,13.60
2023-05-24T08:39:07.210Z,14.40
2023-05-24T08:41:34.028Z,14.20
2023-05-24T08:44:01.025Z,13.80
2023-05-24T08:46:28.857Z,13.00
2023-05-24T08:48:57.716Z,12.20
2023-05-24T08:51:24.540Z,13.90
2023-05-24T08:53:52.069Z,11.60
2023-05-24T08:56:19.276Z,13.80
2023-05-24T08:58:46.037Z,11.80
2023-05-24T09:01:14.421Z,12.00
2023-05-24T09:03:42.971Z,13.20
2023-05-24T09:06:10.902Z,10.90
2023-05-24T09:08:38.172Z,12.00
2023-05-24T09:11:07.272Z,11.70
2023-05-24T09:13:34.034Z,13.10
2023-05-24T09:16:01.691Z,10.10
2023-05-24T09:18:28.571Z,10.40
2023-05-24T09:20:55.605Z,10.80
2023-05-24T09:23:22.881Z,10.10
2023-05-24T09:25:50.067Z,12.20
2023-05-24T09:28:19.935Z,10.70
2023-05-24T09:30:58.226Z,11.40
2023-05-24T09:33:32.117Z,10.20
2023-05-24T09:35:59.952Z,11.60
2023-05-24T09:38:27.330Z,8.80
2023-05-24T09:41:07.896Z,9.90
2023-05-24T09:43:35.528Z,10.10
2023-05-24T09:46:03.811Z,10.70
2023-05-24T09:48:30.955Z,9.60
2023-05-24T09:51:00.528Z,9.30
2023-05-24T09:53:27.167Z,10.80
2023-05-24T09:55:54.423Z,9.50
2023-05-24T09:58:21.004Z,10.20
2023-05-24T10:00:48.045Z,10.30
2023-05-24T10:03:14.838Z,9.80
2023-05-24T10:05:45.548Z,10.40
2023-05-24T10:08:12.622Z,10.60
2023-05-24T10:10:39.170Z,12.50
2023-05-24T10:13:05.814Z,9.60
2023-05-24T10:15:32.411Z,9.00
2023-05-24T10:17:59.164Z,10.50
2023-05-24T10:20:25.898Z,9.70
2023-05-24T10:22:55.369Z,10.10
2023-05-24T10:25:23.999Z,9.40
2023-05-24T10:27:54.248Z,8.80
2023-05-24T10:30:26.570Z,9.90
2023-05-24T10:32:55.669Z,8.80
2023-05-24T10:35:23.151Z,8.30
2023-05-24T10:37:50.256Z,9.90
2023-05-24T10:40:21.285Z,9.50
2023-05-24T10:42:48.478Z,8.80
2023-05-24T10:45:30.268Z,8.40
2023-05-24T10:47:56.868Z,9.80
2023-05-24T10:50:23.669Z,8.60
2023-05-24T10:52:50.256Z,10.50
2023-05-24T10:55:19.475Z,9.00
2023-05-24T10:57:45.975Z,8.30
2023-05-24T11:00:33.919Z,9.10
2023-05-24T11:03:06.413Z,8.70
2023-05-24T11:05:35.408Z,8.60
2023-05-24T11:08:02.413Z,8.90
2023-05-24T11:10:32.554Z,8.70
2023-05-24T11:13:02.954Z,8.80
2023-05-24T11:15:29.980Z,7.60
2023-05-24T11:18:08.955Z,8.90
2023-05-24T11:20:35.970Z,8.60
2023-05-24T11:23:04.082Z,8.10
2023-05-24T11:25:30.641Z,7.70
2023-05-24T11:27:58.809Z,11.50
2023-05-24T11:30:25.381Z,9.20
2023-05-24T11:32:51.976Z,8.10
2023-05-24T11:35:21.282Z,7.80
2023-05-24T11:37:47.840Z,8.30
2023-05-24T11:40:14.613Z,10.30
2023-05-24T11:42:41.731Z,8.30
2023-05-24T11:45:09.071Z,9.10
2023-05-24T11:47:38.369Z,10.50
2023-05-24T11:50:05.589Z,8.70
2023-05-24T11:52:32.304Z,7.90
2023-05-24T11:54:58.844Z,7.90
2023-05-24T11:57:38.167Z,8.50
2023-05-24T12:00:05.398Z,8.30
2023-05-24T12:02:32.064Z,8.30
2023-05-24T12:05:07.285Z,9.00
2023-05-24T12:07:34.331Z,7.30
2023-05-24T12:10:00.847Z,8.50
2023-05-24T12:12:33.933Z,8.70
2023-05-24T12:15:08.088Z,8.30
2023-05-24T12:17:34.661Z,8.10
2023-05-24T12:20:03.177Z,7.80
2023-05-24T12:22:29.757Z,8.20
2023-05-24T12:24:57.045Z,8.00
2023-05-24T12:27:27.931Z,8.70
2023-05-24T12:29:54.422Z,8.00
2023-05-24T12:32:21.342Z,7.70
2023-05-24T12:34:49.801Z,7.50
2023-05-24T12:37:17.398Z,8.50
2023-05-24T12:39:44.740Z,10.80
2023-05-24T12:42:12.206Z,7.80
2023-05-24T12:44:39.297Z,8.60
2023-05-24T12:47:07.728Z,8.70
2023-05-24T12:49:34.607Z,8.40
2023-05-24T12:52:01.259Z,9.20
2023-05-24T12:54:28.833Z,8.80
2023-05-24T12:56:57.236Z,10.00
2023-05-24T12:59:24.311Z,8.60
2023-05-24T13:01:50.925Z,7.70
2023-05-24T13:04:18.555Z,8.90
2023-05-24T13:06:45.207Z,9.20
2023-05-24T13:09:11.751Z,10.00
2023-05-24T13:11:38.340Z,7.60
2023-05-24T13:14:04.858Z,8.40
2023-05-24T13:16:31.448Z,8.20
2023-05-24T13:18:58.016Z,8.90
2023-05-24T13:21:24.598Z,8.80
2023-05-24T13:23:51.115Z,8.00
2023-05-24T13:26:17.762Z,7.90
2023-05-24T13:28:59.033Z,13.50
2023-05-24T13:31:31.307Z,7.40
2023-05-24T13:33:57.952Z,8.10
2023-05-24T13:36:24.494Z,9.20
2023-05-24T13:39:02.297Z,9.10
2023-05-24T13:41:37.584Z,7.60
2023-05-24T13:44:04.383Z,8.30
2023-05-24T13:46:31.147Z,28.50
2023-05-24T13:48:57.680Z,9.50
2023-05-24T13:51:24.512Z,9.10
2023-05-24T13:53:51.027Z,8.10
2023-05-24T13:56:17.574Z,10.00
2023-05-24T13:58:44.476Z,11.50
2023-05-24T14:01:11.142Z,13.10
2023-05-24T14:03:37.914Z,9.20
2023-05-24T14:06:04.547Z,11.10
2023-05-24T14:08:31.081Z,8.00
2023-05-24T14:10:57.588Z,8.90
2023-05-24T14:14:07.476Z,7.90
2023-05-24T14:16:11.053Z,9.10
2023-05-24T14:18:37.635Z,10.50
2023-05-24T14:21:04.156Z,8.90
2023-05-24T14:23:31.130Z,6.90
2023-05-24T14:25:58.197Z,9.00
2023-05-24T14:28:24.972Z,8.10
2023-05-24T14:30:51.506Z,9.00
2023-05-24T14:33:18.029Z,7.60
2023-05-24T14:35:44.750Z,10.10
2023-05-24T14:38:11.820Z,7.50
2023-05-24T14:40:39.022Z,7.80
2023-05-24T14:43:07.227Z,8.40
2023-05-24T14:45:33.962Z,7.50
2023-05-24T14:48:00.540Z,7.70
2023-05-24T14:50:27.124Z,7.20
2023-05-24T14:52:55.325Z,7.70
2023-05-24T14:55:22.478Z,7.60
2023-05-24T14:57:49.182Z,8.80
2023-05-24T15:00:16.217Z,8.40
2023-05-24T15:02:42.903Z,7.40
2023-05-24T15:05:09.665Z,7.90
2023-05-24T15:07:36.188Z,7.30
2023-05-24T15:10:03.164Z,7.90
2023-05-24T15:12:29.667Z,7.70
2023-05-24T15:14:56.194Z,8.10
2023-05-24T15:17:22.785Z,7.40
2023-05-24T15:19:49.776Z,8.10
2023-05-24T15:22:16.349Z,8.40
2023-05-24T15:24:42.926Z,8.00
2023-05-24T15:27:09.463Z,8.20
2023-05-24T15:29:36.235Z,8.20
2023-05-24T15:32:02.747Z,7.70
2023-05-24T15:34:29.223Z,7.80
2023-05-24T15:36:55.747Z,6.70
2023-05-24T15:39:22.267Z,7.00
2023-05-24T15:41:48.997Z,9.00
2023-05-24T15:44:15.498Z,7.60
2023-05-24T15:46:42.037Z,7.50
2023-05-24T15:49:08.547Z,7.30
2023-05-24T15:52:02.930Z,6.80
2023-05-24T15:54:22.322Z,8.90
2023-05-24T15:56:48.870Z,8.80
2023-05-24T15:59:15.738Z,7.00
2023-05-24T16:01:42.291Z,8.40
2023-05-24T16:04:09.087Z,7.30
2023-05-24T16:06:35.685Z,7.30
2023-05-24T16:09:02.596Z,7.00
2023-05-24T16:11:29.078Z,7.40
2023-05-24T16:13:55.550Z,7.00
2023-05-24T16:16:22.085Z,7.40
2023-05-24T16:18:48.903Z,7.90
2023-05-24T16:21:15.482Z,7.70
2023-05-24T16:23:42.007Z,6.60
2023-05-24T16:26:08.643Z,9.20
2023-05-24T16:28:35.186Z,8.20
2023-05-24T16:31:01.701Z,6.90
2023-05-24T16:33:28.380Z,7.30
2023-05-24T16:35:54.879Z,8.40
2023-05-24T16:38:25.358Z,8.50
2023-05-24T16:40:52.403Z,9.70
2023-05-24T16:43:19.057Z,8.40
2023-05-24T16:45:45.844Z,7.30
2023-05-24T16:48:13.228Z,7.50
2023-05-24T16:50:40.406Z,7.90
2023-05-24T16:53:07.056Z,7.80
2023-05-24T16:55:33.613Z,8.10
2023-05-24T16:58:00.235Z,7.50
2023-05-24T17:00:26.879Z,9.80
2023-05-24T17:02:53.452Z,8.00
2023-05-24T17:05:20.061Z,7.30
2023-05-24T17:07:46.563Z,8.00
2023-05-24T17:10:13.096Z,7.30
2023-05-24T17:12:39.654Z,8.10
2023-05-24T17:15:06.535Z,9.20
2023-05-24T17:17:33.072Z,7.90
2023-05-24T17:19:59.720Z,7.40
2023-05-24T17:22:26.581Z,8.30
2023-05-24T17:24:53.058Z,7.40
2023-05-24T17:27:22.095Z,8.90
2023-05-24T17:29:49.140Z,8.10
2023-05-24T17:32:15.584Z,8.30
2023-05-24T17:34:42.120Z,7.50
2023-05-24T17:37:08.639Z,9.90
2023-05-24T17:39:35.113Z,8.30
2023-05-24T17:42:01.672Z,7.80
2023-05-24T17:44:28.161Z,8.40
2023-05-24T17:46:54.702Z,8.70
2023-05-24T17:49:21.308Z,8.80
2023-05-24T17:51:47.846Z,7.60
2023-05-24T17:54:14.338Z,8.50
2023-05-24T17:56:40.896Z,8.50
2023-05-24T17:59:07.457Z,8.90
2023-05-24T18:01:34.016Z,7.90
2023-05-24T18:04:00.531Z,8.50
2023-05-24T18:06:27.092Z,9.00
2023-05-24T18:08:53.920Z,10.10
2023-05-24T18:11:20.420Z,9.60
2023-05-24T18:13:46.914Z,9.10
2023-05-24T18:16:13.920Z,10.40
2023-05-24T18:18:40.496Z,8.80
2023-05-24T18:21:08.039Z,9.80
2023-05-24T18:23:34.564Z,10.60
2023-05-24T18:26:03.092Z,9.60
2023-05-24T18:28:29.954Z,8.20
2023-05-24T18:30:56.493Z,10.30
2023-05-24T18:33:23.156Z,10.40
2023-05-24T18:35:49.764Z,9.20
2023-05-24T18:38:16.361Z,9.10
2023-05-24T18:40:43.076Z,9.40
2023-05-24T18:43:09.644Z,8.20
2023-05-24T18:45:36.168Z,9.00
2023-05-24T18:48:02.822Z,9.20
2023-05-24T18:50:29.361Z,8.90
2023-05-24T18:52:55.966Z,8.80
2023-05-24T18:55:22.512Z,8.50
2023-05-24T18:57:49.116Z,9.40
2023-05-24T19:00:16.039Z,9.70
2023-05-24T19:02:42.617Z,8.60
2023-05-24T19:05:09.434Z,8.10
2023-05-24T19:07:36.808Z,9.10
2023-05-24T19:10:03.961Z,9.50
2023-05-24T19:12:30.620Z,12.10
2023-05-24T19:14:57.288Z,9.10
2023-05-24T19:17:25.027Z,9.70
2023-05-24T19:19:52.169Z,8.90
2023-05-24T19:22:18.802Z,9.00
2023-05-24T19:24:45.470Z,9.10
2023-05-24T19:27:11.978Z,7.60
2023-05-24T19:29:38.560Z,7.80
2023-05-24T19:32:05.747Z,8.70
2023-05-24T19:34:32.509Z,8.00
2023-05-24T19:36:59.046Z,8.90
2023-05-24T19:39:25.571Z,9.40
2023-05-24T19:41:52.144Z,9.70
2023-05-24T19:44:19.225Z,10.10
2023-05-24T19:46:45.989Z,8.10
2023-05-24T19:49:12.590Z,7.60
2023-05-24T19:51:39.119Z,9.50
2023-05-24T19:54:05.716Z,11.90
2023-05-24T19:56:32.265Z,9.00
2023-05-24T19:58:58.828Z,8.90
2023-05-24T20:01:25.643Z,7.90
2023-05-24T20:03:52.371Z,9.60
2023-05-24T20:06:19.055Z,10.40
2023-05-24T20:08:45.730Z,8.90
2023-05-24T20:11:12.326Z,10.00
2023-05-24T20:13:41.420Z,7.90
2023-05-24T20:16:07.970Z,8.00
2023-05-24T20:18:34.546Z,8.20
2023-05-24T20:21:02.433Z,7.90
2023-05-24T20:23:29.048Z,8.20
2023-05-24T20:25:55.609Z,7.70
2023-05-24T20:28:30.623Z,10.10
2023-05-24T20:30:58.617Z,13.20
2023-05-24T20:33:25.157Z,11.10
2023-05-24T20:35:51.680Z,9.90
2023-05-24T20:38:18.248Z,9.30
2023-05-24T20:40:44.802Z,8.70
2023-05-24T20:43:11.305Z,10.50
2023-05-24T20:45:37.929Z,10.40
2023-05-24T20:48:04.697Z,9.40
2023-05-24T20:50:31.289Z,9.00
2023-05-24T20:52:57.893Z,8.50
2023-05-24T20:55:26.555Z,9.40
2023-05-24T20:57:53.560Z,9.70
2023-05-24T21:00:20.128Z,9.30
2023-05-24T21:02:46.795Z,8.90
2023-05-24T21:05:13.439Z,9.40
2023-05-24T21:07:40.034Z,9.30
2023-05-24T21:10:07.266Z,9.10
2023-05-24T21:12:33.801Z,9.00
2023-05-24T21:15:00.349Z,10.10
2023-05-24T21:17:26.885Z,10.60
2023-05-24T21:19:53.483Z,9.40
2023-05-24T21:22:20.030Z,8.40
2023-05-24T21:24:46.783Z,9.00
2023-05-24T21:27:13.446Z,9.10
2023-05-24T21:29:39.972Z,10.60
2023-05-24T21:32:06.533Z,10.80
2023-05-24T21:34:33.049Z,9.50
2023-05-24T21:36:59.564Z,10.60
2023-05-24T21:39:26.059Z,10.80
2023-05-24T21:41:52.655Z,10.10
2023-05-24T21:44:19.209Z,11.70
2023-05-24T21:46:45.734Z,9.30
2023-05-24T21:49:12.325Z,11.90
2023-05-24T21:51:38.950Z,11.50
2023-05-24T21:54:05.639Z,10.70
2023-05-24T21:56:32.140Z,12.00
2023-05-24T21:58:58.733Z,13.10
2023-05-24T22:01:25.287Z,12.00
2023-05-24T22:03:51.913Z,13.80
2023-05-24T22:06:18.523Z,10.90
2023-05-24T22:08:45.081Z,12.20
2023-05-24T22:11:11.585Z,12.20
2023-05-24T22:13:38.109Z,11.00
2023-05-24T22:16:04.929Z,9.80
2023-05-24T22:18:31.486Z,11.90
2023-05-24T22:20:58.103Z,10.30
2023-05-24T22:23:25.825Z,10.60
2023-05-24T22:25:52.326Z,9.70
2023-05-24T22:28:18.923Z,10.10
2023-05-24T22:30:47.038Z,9.90
2023-05-24T22:33:13.768Z,13.60
2023-05-24T22:35:40.354Z,12.30
2023-05-24T22:38:07.012Z,13.30
2023-05-24T22:40:33.576Z,16.70
2023-05-24T22:43:00.152Z,12.90
2023-05-24T22:45:26.698Z,16.10
2023-05-24T22:47:53.257Z,19.20
2023-05-24T22:50:19.909Z,15.20
2023-05-24T22:52:46.487Z,14.50
2023-05-24T22:55:12.981Z,13.50
2023-05-24T22:57:39.543Z,14.20
2023-05-24T23:00:06.760Z,11.90
2023-05-24T23:02:33.317Z,12.70
2023-05-24T23:04:59.857Z,12.10
2023-05-24T23:07:26.446Z,12.90
2023-05-24T23:09:52.903Z,11.70
2023-05-24T23:12:19.443Z,12.40
2023-05-24T23:14:45.940Z,11.90
2023-05-24T23:17:12.662Z,12.90
2023-05-24T23:19:40.192Z,12.10
2023-05-24T23:22:06.705Z,10.80
2023-05-24T23:24:33.243Z,12.60
2023-05-24T23:26:59.752Z,12.40
2023-05-24T23:29:26.255Z,10.70
2023-05-24T23:31:52.812Z,10.70
2023-05-24T23:34:19.430Z,12.90
2023-05-24T23:36:45.923Z,11.80
2023-05-24T23:39:12.445Z,11.60
2023-05-24T23:41:38.926Z,9.90
2023-05-24T23:44:05.469Z,11.60
2023-05-24T23:46:32.150Z,11.80
2023-05-24T23:48:58.789Z,11.90
2023-05-24T23:51:25.282Z,10.50
2023-05-24T23:53:51.832Z,12.50
2023-05-24T23:56:18.381Z,11.20
2023-05-24T23:58:44.893Z,10.70
